createdAt,value
2022-10-30T00:00:35.870Z,15.30
2022-10-30T00:03:03.317Z,15.30
2022-10-30T00:05:30.576Z,15.20
2022-10-30T00:07:58.196Z,15.30
2022-10-30T00:10:25.390Z,15.20
2022-10-30T00:12:52.260Z,15.20
2022-10-30T00:15:19.228Z,15.20
2022-10-30T00:17:46.325Z,15.20
2022-10-30T00:20:13.207Z,15.20
2022-10-30T00:22:40.070Z,15.10
2022-10-30T00:25:07.174Z,15.00
2022-10-30T00:27:34.014Z,14.90
2022-10-30T00:30:00.944Z,14.90
2022-10-30T00:32:28.369Z,14.80
2022-10-30T00:34:55.224Z,14.80
2022-10-30T00:37:22.159Z,14.80
2022-10-30T00:39:49.115Z,14.80
2022-10-30T00:42:17.211Z,14.70
2022-10-30T00:44:51.195Z,14.70
2022-10-30T00:47:25.738Z,14.70
2022-10-30T00:49:58.671Z,14.70
2022-10-30T00:52:26.809Z,14.70
2022-10-30T00:54:54.088Z,14.70
2022-10-30T00:57:20.906Z,14.70
2022-10-30T00:59:47.991Z,14.70
2022-10-30T01:02:15.013Z,14.60
2022-10-30T01:04:42.004Z,14.60
2022-10-30T01:07:12.958Z,14.60
2022-10-30T01:09:39.782Z,14.60
2022-10-30T01:12:06.875Z,14.50
2022-10-30T01:14:37.133Z,14.50
2022-10-30T01:17:16.014Z,14.50
2022-10-30T01:19:45.087Z,14.50
2022-10-30T01:22:44.662Z,14.50
2022-10-30T01:25:20.643Z,14.40
2022-10-30T01:27:53.355Z,14.40
2022-10-30T01:30:26.188Z,14.30
2022-10-30T01:32:56.406Z,14.20
2022-10-30T01:35:32.503Z,14.10
2022-10-30T01:38:08.813Z,14.10
2022-10-30T01:40:35.838Z,14.10
2022-10-30T01:43:03.062Z,14.00
2022-10-30T01:45:48.432Z,14.00
2022-10-30T01:48:20.393Z,14.00
2022-10-30T01:50:54.646Z,14.00
2022-10-30T01:53:27.350Z,14.00
2022-10-30T01:55:58.427Z,14.00
2022-10-30T01:58:32.343Z,13.90
2022-10-30T02:01:02.087Z,13.90
2022-10-30T02:03:30.782Z,13.80
2022-10-30T02:06:00.648Z,13.80
2022-10-30T02:08:27.518Z,13.80
2022-10-30T02:10:54.591Z,13.80
2022-10-30T02:13:21.686Z,13.80
2022-10-30T02:15:48.655Z,13.80
2022-10-30T02:18:15.930Z,13.80
2022-10-30T02:20:42.834Z,13.70
2022-10-30T02:23:13.644Z,13.70
2022-10-30T02:25:41.987Z,13.60
2022-10-30T02:28:09.004Z,13.60
2022-10-30T02:30:36.187Z,13.60
2022-10-30T02:33:03.289Z,13.60
2022-10-30T02:35:30.341Z,13.60
2022-10-30T02:37:57.352Z,13.60
2022-10-30T02:40:24.443Z,13.60
2022-10-30T02:42:51.955Z,13.60
2022-10-30T02:45:19.252Z,13.60
2022-10-30T02:47:46.262Z,13.60
2022-10-30T02:50:13.460Z,13.50
2022-10-30T02:52:40.497Z,13.50
2022-10-30T02:55:07.569Z,13.50
2022-10-30T02:57:34.424Z,13.50
2022-10-30T03:00:01.880Z,13.40
2022-10-30T03:02:28.891Z,13.50
2022-10-30T03:04:56.051Z,13.50
2022-10-30T03:07:23.294Z,13.50
2022-10-30T03:09:50.380Z,13.60
2022-10-30T03:12:17.371Z,13.50
2022-10-30T03:14:44.744Z,13.40
2022-10-30T03:17:11.891Z,13.50
2022-10-30T03:19:39.039Z,13.40
2022-10-30T03:22:05.985Z,13.50
2022-10-30T03:24:33.039Z,13.50
2022-10-30T03:27:00.103Z,13.50
2022-10-30T03:29:27.155Z,13.50
2022-10-30T03:31:54.089Z,13.40
2022-10-30T03:34:20.969Z,13.40
2022-10-30T03:36:47.956Z,13.40
2022-10-30T03:39:14.818Z,13.30
2022-10-30T03:41:43.630Z,13.30
2022-10-30T03:44:10.760Z,13.30
2022-10-30T03:46:38.302Z,13.20
2022-10-30T03:49:05.341Z,13.30
2022-10-30T03:51:32.393Z,13.20
2022-10-30T03:53:59.665Z,13.20
2022-10-30T03:56:26.701Z,13.20
2022-10-30T03:58:53.659Z,13.10
2022-10-30T04:01:20.769Z,13.10
2022-10-30T04:03:47.760Z,13.10
2022-10-30T04:06:14.895Z,13.10
2022-10-30T04:08:41.957Z,13.00
2022-10-30T04:11:10.301Z,13.00
2022-10-30T04:13:37.554Z,13.10
2022-10-30T04:16:04.818Z,13.10
2022-10-30T04:18:31.784Z,13.00
2022-10-30T04:21:01.876Z,13.00
2022-10-30T04:23:29.006Z,12.90
2022-10-30T04:25:55.910Z,12.90
2022-10-30T04:28:22.826Z,12.80
2022-10-30T04:30:49.978Z,12.80
2022-10-30T04:33:17.133Z,12.90
2022-10-30T04:35:44.001Z,12.80
2022-10-30T04:38:12.013Z,12.80
2022-10-30T04:40:39.707Z,12.70
2022-10-30T04:43:06.841Z,12.70
2022-10-30T04:45:34.226Z,12.70
2022-10-30T04:48:02.252Z,12.70
2022-10-30T04:50:29.303Z,12.70
2022-10-30T04:53:06.286Z,12.70
2022-10-30T04:55:33.535Z,12.70
2022-10-30T04:58:00.886Z,12.70
2022-10-30T05:00:28.353Z,12.70
2022-10-30T05:02:55.296Z,12.70
2022-10-30T05:05:22.250Z,12.70
2022-10-30T05:07:49.300Z,12.70
2022-10-30T05:10:17.262Z,12.70
2022-10-30T05:12:44.632Z,12.80
2022-10-30T05:15:12.021Z,12.70
2022-10-30T05:17:39.059Z,12.80
2022-10-30T05:20:06.108Z,12.70
2022-10-30T05:22:33.045Z,12.70
2022-10-30T05:24:59.948Z,12.70
2022-10-30T05:27:26.890Z,12.70
2022-10-30T05:29:53.758Z,12.70
2022-10-30T05:32:20.705Z,12.70
2022-10-30T05:34:47.657Z,12.70
2022-10-30T05:37:14.502Z,12.70
2022-10-30T05:39:41.517Z,12.80
2022-10-30T05:42:13.437Z,12.80
2022-10-30T05:44:59.945Z,12.80
2022-10-30T05:47:27.888Z,12.90
2022-10-30T05:49:54.980Z,13.00
2022-10-30T05:52:22.172Z,13.10
2022-10-30T05:54:49.174Z,13.10
2022-10-30T05:57:16.161Z,13.00
2022-10-30T05:59:43.157Z,13.10
2022-10-30T06:02:10.065Z,13.20
2022-10-30T06:04:36.985Z,13.10
2022-10-30T06:07:03.904Z,13.10
2022-10-30T06:09:30.861Z,13.20
2022-10-30T06:11:58.844Z,13.20
2022-10-30T06:14:25.877Z,13.40
2022-10-30T06:16:52.820Z,13.40
2022-10-30T06:19:19.865Z,13.60
2022-10-30T06:21:47.138Z,13.90
2022-10-30T06:24:14.324Z,14.40
2022-10-30T06:26:41.324Z,14.90
2022-10-30T06:29:08.297Z,15.20
2022-10-30T06:31:35.432Z,15.80
2022-10-30T06:34:03.329Z,16.40
2022-10-30T06:36:30.379Z,16.90
2022-10-30T06:39:03.262Z,17.50
2022-10-30T06:41:30.731Z,18.00
2022-10-30T06:43:57.954Z,18.40
2022-10-30T06:46:27.501Z,18.90
2022-10-30T06:48:59.611Z,19.20
2022-10-30T06:51:26.495Z,19.70
2022-10-30T06:53:53.400Z,20.20
2022-10-30T06:56:23.068Z,20.60
2022-10-30T06:58:50.160Z,21.10
2022-10-30T07:01:17.973Z,21.60
2022-10-30T07:03:44.963Z,22.10
2022-10-30T07:06:12.104Z,22.60
2022-10-30T07:08:46.215Z,23.00
2022-10-30T07:11:15.308Z,23.30
2022-10-30T07:13:42.260Z,23.60
2022-10-30T07:16:09.186Z,24.00
2022-10-30T07:18:36.372Z,24.40
2022-10-30T07:21:03.384Z,24.30
2022-10-30T07:23:30.466Z,24.40
2022-10-30T07:26:03.310Z,24.80
2022-10-30T07:28:31.824Z,25.40
2022-10-30T07:30:59.073Z,25.90
2022-10-30T07:33:26.292Z,26.40
2022-10-30T07:35:53.302Z,27.00
2022-10-30T07:38:20.353Z,27.30
2022-10-30T07:40:54.736Z,27.70
2022-10-30T07:43:23.293Z,28.40
2022-10-30T07:45:59.798Z,28.90
2022-10-30T07:48:27.003Z,29.50
2022-10-30T07:51:03.831Z,29.90
2022-10-30T07:53:31.078Z,30.20
2022-10-30T07:55:58.317Z,30.50
2022-10-30T07:58:25.288Z,30.80
2022-10-30T08:00:52.542Z,31.20
2022-10-30T08:03:40.955Z,31.60
2022-10-30T08:08:37.896Z,32.20
2022-10-30T08:11:11.929Z,32.70
2022-10-30T08:13:38.979Z,33.10
2022-10-30T08:16:06.149Z,33.50
2022-10-30T08:18:45.801Z,33.80
2022-10-30T08:21:12.921Z,34.10
2022-10-30T08:23:40.086Z,34.70
2022-10-30T08:26:07.839Z,35.30
2022-10-30T08:28:37.965Z,35.20
2022-10-30T08:31:14.541Z,34.50
2022-10-30T08:33:41.521Z,33.70
2022-10-30T08:36:09.113Z,33.90
2022-10-30T08:38:36.097Z,34.70
2022-10-30T08:41:03.214Z,35.30
2022-10-30T08:43:30.240Z,35.50
2022-10-30T08:46:00.614Z,35.90
2022-10-30T08:48:27.842Z,36.40
2022-10-30T08:50:58.071Z,36.90
2022-10-30T08:53:25.231Z,37.50
2022-10-30T08:55:52.379Z,37.90
2022-10-30T08:58:19.611Z,38.30
2022-10-30T09:00:46.680Z,38.30
2022-10-30T09:03:13.716Z,38.30
2022-10-30T09:05:46.413Z,37.90
2022-10-30T09:08:13.375Z,38.30
2022-10-30T09:10:40.187Z,39.20
2022-10-30T09:13:07.852Z,40.10
2022-10-30T09:15:34.877Z,40.60
2022-10-30T09:18:02.914Z,40.40
2022-10-30T09:20:30.289Z,39.60
2022-10-30T09:22:58.145Z,38.50
2022-10-30T09:25:25.648Z,37.00
2022-10-30T09:27:52.822Z,35.60
2022-10-30T09:30:20.044Z,34.20
2022-10-30T09:32:50.065Z,33.20
2022-10-30T09:35:20.893Z,32.50
2022-10-30T09:37:47.960Z,32.00
2022-10-30T09:40:20.211Z,31.50
2022-10-30T09:42:47.657Z,31.40
2022-10-30T09:45:28.619Z,31.80
2022-10-30T09:48:11.702Z,32.10
2022-10-30T09:51:01.978Z,33.60
2022-10-30T09:53:31.084Z,35.90
2022-10-30T09:56:02.122Z,38.20
2022-10-30T09:58:34.244Z,39.60
2022-10-30T10:01:17.948Z,40.30
2022-10-30T10:03:48.049Z,40.90
2022-10-30T10:06:18.775Z,41.10
2022-10-30T10:08:54.028Z,40.30
2022-10-30T10:11:22.271Z,40.50
2022-10-30T10:13:54.332Z,41.20
2022-10-30T10:16:21.889Z,41.80
2022-10-30T10:18:51.821Z,42.50
2022-10-30T10:21:21.411Z,43.30
2022-10-30T10:23:49.095Z,43.80
2022-10-30T10:26:29.293Z,44.20
2022-10-30T10:28:59.230Z,44.40
2022-10-30T10:31:44.886Z,44.80
2022-10-30T10:34:30.821Z,45.00
2022-10-30T10:36:57.726Z,45.20
2022-10-30T10:39:34.314Z,45.50
2022-10-30T10:42:13.782Z,45.80
2022-10-30T10:44:57.269Z,46.20
2022-10-30T10:47:35.231Z,46.30
2022-10-30T10:50:18.094Z,46.50
2022-10-30T10:52:54.690Z,46.70
2022-10-30T10:55:30.556Z,47.00
2022-10-30T10:58:00.067Z,47.00
2022-10-30T11:00:29.197Z,47.20
2022-10-30T11:02:59.296Z,47.30
2022-10-30T11:05:28.316Z,47.10
2022-10-30T11:08:07.218Z,47.30
2022-10-30T11:10:34.279Z,47.30
2022-10-30T11:13:03.486Z,46.20
2022-10-30T11:15:36.214Z,46.00
2022-10-30T11:20:41.485Z,44.80
2022-10-30T11:23:30.174Z,45.20
2022-10-30T11:25:59.584Z,45.80
2022-10-30T11:28:36.791Z,45.30
2022-10-30T11:31:22.499Z,44.90
2022-10-30T11:33:49.483Z,44.90
2022-10-30T11:36:16.767Z,45.10
2022-10-30T11:38:43.693Z,45.40
2022-10-30T11:41:10.830Z,45.70
2022-10-30T11:43:38.106Z,45.80
2022-10-30T11:46:09.407Z,45.30
2022-10-30T11:48:42.302Z,45.60
2022-10-30T11:51:09.213Z,46.20
2022-10-30T11:53:38.836Z,46.50
2022-10-30T11:56:13.190Z,46.70
2022-10-30T11:58:42.518Z,46.40
2022-10-30T12:01:14.078Z,46.20
2022-10-30T12:03:43.208Z,46.20
2022-10-30T12:06:12.199Z,46.50
2022-10-30T12:08:43.610Z,46.70
2022-10-30T12:11:12.203Z,46.90
2022-10-30T12:13:40.103Z,47.00
2022-10-30T12:16:14.062Z,47.20
2022-10-30T12:18:41.149Z,46.60
2022-10-30T12:21:09.152Z,46.20
2022-10-30T12:23:36.083Z,46.40
2022-10-30T12:26:09.063Z,46.60
2022-10-30T12:28:40.621Z,46.90
2022-10-30T12:31:13.320Z,46.80
2022-10-30T12:33:50.285Z,46.90
2022-10-30T12:36:18.263Z,47.00
2022-10-30T12:38:52.981Z,47.10
2022-10-30T12:41:24.944Z,47.00
2022-10-30T12:43:58.319Z,47.00
2022-10-30T12:46:25.171Z,46.80
2022-10-30T12:48:53.488Z,46.60
2022-10-30T12:51:24.071Z,46.70
2022-10-30T12:54:00.621Z,46.70
2022-10-30T12:56:30.555Z,46.50
2022-10-30T12:59:03.332Z,46.40
2022-10-30T13:01:43.865Z,46.50
2022-10-30T13:04:19.151Z,46.50
2022-10-30T13:06:49.140Z,46.60
2022-10-30T13:09:22.891Z,46.50
2022-10-30T13:11:58.372Z,46.40
2022-10-30T13:14:48.279Z,46.20
2022-10-30T13:17:15.410Z,46.00
2022-10-30T13:19:47.493Z,45.60
2022-10-30T13:22:34.997Z,45.40
2022-10-30T13:25:07.648Z,45.20
2022-10-30T13:27:41.283Z,44.60
2022-10-30T13:30:18.208Z,44.30
2022-10-30T13:32:45.124Z,44.10
2022-10-30T13:35:30.659Z,44.10
2022-10-30T13:38:00.768Z,44.00
2022-10-30T13:40:33.252Z,43.80
2022-10-30T13:43:18.496Z,43.70
2022-10-30T13:45:51.933Z,43.30
2022-10-30T13:48:28.381Z,43.10
2022-10-30T13:51:04.142Z,42.80
2022-10-30T13:53:31.034Z,42.30
2022-10-30T13:55:58.184Z,42.10
2022-10-30T13:58:43.439Z,41.90
2022-10-30T14:01:30.694Z,41.90
2022-10-30T14:04:10.530Z,41.60
2022-10-30T14:06:57.619Z,41.30
2022-10-30T14:09:26.286Z,41.20
2022-10-30T14:11:54.367Z,41.10
2022-10-30T14:14:24.681Z,41.00
2022-10-30T14:17:04.611Z,41.00
2022-10-30T14:19:31.686Z,40.90
2022-10-30T14:21:58.873Z,40.80
2022-10-30T14:26:55.120Z,40.30
2022-10-30T14:29:37.674Z,40.00
2022-10-30T14:32:13.942Z,39.30
2022-10-30T14:34:55.938Z,37.90
2022-10-30T14:37:22.966Z,36.90
2022-10-30T14:39:50.548Z,35.90
2022-10-30T14:42:26.865Z,35.30
2022-10-30T14:45:18.953Z,34.80
2022-10-30T14:48:03.982Z,34.30
2022-10-30T14:50:32.633Z,33.80
2022-10-30T14:53:17.981Z,33.30
2022-10-30T14:56:12.200Z,32.90
2022-10-30T14:58:39.403Z,32.60
2022-10-30T15:01:09.392Z,32.30
2022-10-30T15:04:06.056Z,32.00
2022-10-30T15:06:52.972Z,31.70
2022-10-30T15:09:35.091Z,31.40
2022-10-30T15:12:10.968Z,31.20
2022-10-30T15:14:57.432Z,30.90
2022-10-30T15:17:29.926Z,30.80
2022-10-30T15:19:56.788Z,30.50
2022-10-30T15:22:23.800Z,30.30
2022-10-30T15:24:51.335Z,30.00
2022-10-30T15:27:19.285Z,29.70
2022-10-30T15:30:12.332Z,29.40
2022-10-30T15:32:40.782Z,29.20
2022-10-30T15:35:15.134Z,29.00
2022-10-30T15:37:56.174Z,28.80
2022-10-30T15:40:23.086Z,28.60
2022-10-30T15:42:50.006Z,28.40
2022-10-30T15:45:24.146Z,28.30
2022-10-30T15:48:11.640Z,28.10
2022-10-30T15:50:40.013Z,27.90
2022-10-30T15:53:07.146Z,27.70
2022-10-30T15:55:34.145Z,27.50
2022-10-30T15:58:04.364Z,27.40
2022-10-30T16:00:32.793Z,27.30
2022-10-30T16:03:20.102Z,27.10
2022-10-30T16:05:47.357Z,26.90
2022-10-30T16:08:22.154Z,26.80
2022-10-30T16:10:49.302Z,26.70
2022-10-30T16:13:19.870Z,26.60
2022-10-30T16:15:47.681Z,26.50
2022-10-30T16:18:29.252Z,26.30
2022-10-30T16:20:57.103Z,26.20
2022-10-30T16:23:24.854Z,26.00
2022-10-30T16:25:58.724Z,25.90
2022-10-30T16:28:34.277Z,25.80
2022-10-30T16:31:05.246Z,25.70
2022-10-30T16:33:33.735Z,25.60
2022-10-30T16:36:03.754Z,25.50
2022-10-30T16:38:37.116Z,25.40
2022-10-30T16:41:06.675Z,25.30
2022-10-30T16:44:05.559Z,25.10
2022-10-30T16:46:48.477Z,25.00
2022-10-30T16:49:17.271Z,24.80
2022-10-30T16:51:44.178Z,24.70
2022-10-30T16:54:31.265Z,24.60
2022-10-30T16:57:17.936Z,24.60
2022-10-30T16:59:55.507Z,24.50
2022-10-30T17:02:23.167Z,24.40
2022-10-30T17:04:53.846Z,24.40
2022-10-30T17:07:27.809Z,24.30
2022-10-30T17:09:57.094Z,24.20
2022-10-30T17:12:24.839Z,24.10
2022-10-30T17:15:36.956Z,24.10
2022-10-30T17:18:12.690Z,24.00
2022-10-30T17:20:39.625Z,23.90
2022-10-30T17:23:13.625Z,23.80
2022-10-30T17:25:45.245Z,23.60
2022-10-30T17:28:32.528Z,23.50
2022-10-30T17:31:21.336Z,23.40
2022-10-30T17:34:05.536Z,23.40
2022-10-30T17:36:35.402Z,23.40
2022-10-30T17:39:02.582Z,23.30
2022-10-30T17:41:29.755Z,23.30
2022-10-30T17:43:56.683Z,23.20
2022-10-30T17:46:24.059Z,23.10
2022-10-30T17:48:50.962Z,23.10
2022-10-30T17:51:18.012Z,22.90
2022-10-30T17:53:44.899Z,22.80
2022-10-30T17:56:20.419Z,22.70
2022-10-30T17:58:47.417Z,22.70
2022-10-30T18:01:16.984Z,22.70
2022-10-30T18:03:44.554Z,22.60
2022-10-30T18:06:15.880Z,22.50
2022-10-30T18:08:46.341Z,22.40
2022-10-30T18:11:17.126Z,22.30
2022-10-30T18:13:46.846Z,22.30
2022-10-30T18:16:16.038Z,22.20
2022-10-30T18:18:43.075Z,22.10
2022-10-30T18:21:19.188Z,22.00
2022-10-30T18:23:53.082Z,22.00
2022-10-30T18:26:28.997Z,21.90
2022-10-30T18:28:59.024Z,21.80
2022-10-30T18:31:25.947Z,21.90
2022-10-30T18:33:54.461Z,21.80
2022-10-30T18:36:22.104Z,21.70
2022-10-30T18:38:49.472Z,21.70
2022-10-30T18:41:17.784Z,21.60
2022-10-30T18:43:46.921Z,21.50
2022-10-30T18:46:14.721Z,21.40
2022-10-30T18:48:41.897Z,21.30
2022-10-30T18:51:21.111Z,21.30
2022-10-30T18:53:52.420Z,21.20
2022-10-30T18:56:23.574Z,21.20
2022-10-30T18:58:54.698Z,21.10
2022-10-30T19:01:26.308Z,21.20
2022-10-30T19:03:53.327Z,21.10
2022-10-30T19:06:21.822Z,21.00
2022-10-30T19:08:48.896Z,20.90
2022-10-30T19:11:20.144Z,20.90
2022-10-30T19:14:05.851Z,20.70
2022-10-30T19:16:35.856Z,20.70
2022-10-30T19:19:03.567Z,20.60
2022-10-30T19:21:33.645Z,20.60
2022-10-30T19:24:08.050Z,20.60
2022-10-30T19:29:15.745Z,20.40
2022-10-30T19:31:43.090Z,20.40
2022-10-30T19:34:21.671Z,20.30
2022-10-30T19:36:48.706Z,20.20
2022-10-30T19:39:18.655Z,20.10
2022-10-30T19:41:45.782Z,20.00
2022-10-30T19:44:12.994Z,20.00
2022-10-30T19:46:40.059Z,20.00
2022-10-30T19:49:15.910Z,19.90
2022-10-30T19:51:43.429Z,19.90
2022-10-30T19:57:04.509Z,19.70
2022-10-30T19:59:34.634Z,19.70
2022-10-30T20:02:01.743Z,19.60
2022-10-30T20:04:29.269Z,19.50
2022-10-30T20:07:02.126Z,19.40
2022-10-30T20:09:30.813Z,19.30
2022-10-30T20:11:59.066Z,19.40
2022-10-30T20:14:26.181Z,19.20
2022-10-30T20:16:53.399Z,19.10
2022-10-30T20:19:30.078Z,19.10
2022-10-30T20:21:57.152Z,19.10
2022-10-30T20:24:24.616Z,19.10
2022-10-30T20:26:51.754Z,19.20
2022-10-30T20:29:18.800Z,19.10
2022-10-30T20:31:46.977Z,19.10
2022-10-30T20:34:17.466Z,19.10
2022-10-30T20:36:44.522Z,18.90
2022-10-30T20:39:12.086Z,18.90
2022-10-30T20:41:39.164Z,18.90
2022-10-30T20:44:10.143Z,18.90
2022-10-30T20:46:37.332Z,18.80
2022-10-30T20:49:16.941Z,18.80
2022-10-30T20:51:45.225Z,18.80
2022-10-30T20:54:20.501Z,18.80
2022-10-30T20:56:47.875Z,18.70
2022-10-30T20:59:17.777Z,18.60
2022-10-30T21:01:45.015Z,18.50
2022-10-30T21:04:12.192Z,18.30
2022-10-30T21:06:39.720Z,18.10
2022-10-30T21:09:06.917Z,18.00
2022-10-30T21:11:34.174Z,18.10
2022-10-30T21:14:01.434Z,18.10
2022-10-30T21:16:28.941Z,18.10
2022-10-30T21:18:57.221Z,18.10
2022-10-30T21:21:25.825Z,18.10
2022-10-30T21:23:56.437Z,18.10
2022-10-30T21:26:25.045Z,18.10
2022-10-30T21:28:52.495Z,18.10
2022-10-30T21:31:22.936Z,18.00
2022-10-30T21:33:50.198Z,18.00
2022-10-30T21:36:22.864Z,18.00
2022-10-30T21:38:50.615Z,17.90
2022-10-30T21:41:20.542Z,17.90
2022-10-30T21:43:57.620Z,17.90
2022-10-30T21:46:25.476Z,17.80
2022-10-30T21:48:52.952Z,17.80
2022-10-30T21:51:23.952Z,17.80
2022-10-30T21:54:03.091Z,17.80
2022-10-30T21:56:31.488Z,17.80
2022-10-30T21:59:00.582Z,17.80
2022-10-30T22:01:28.850Z,17.70
2022-10-30T22:03:58.675Z,17.70
2022-10-30T22:06:29.010Z,17.70
2022-10-30T22:08:56.976Z,17.60
2022-10-30T22:11:24.432Z,17.60
2022-10-30T22:13:55.593Z,17.50
2022-10-30T22:16:26.117Z,17.50
2022-10-30T22:18:54.474Z,17.50
2022-10-30T22:21:22.040Z,17.40
2022-10-30T22:23:49.398Z,17.30
2022-10-30T22:26:18.986Z,17.30
2022-10-30T22:28:49.099Z,17.20
2022-10-30T22:31:17.246Z,17.20
2022-10-30T22:33:44.941Z,17.00
2022-10-30T22:36:15.468Z,17.00
2022-10-30T22:38:42.762Z,17.00
2022-10-30T22:41:20.263Z,17.00
2022-10-30T22:43:47.890Z,16.90
2022-10-30T22:46:18.453Z,16.90
2022-10-30T22:48:53.165Z,16.80
2022-10-30T22:51:20.628Z,16.70
2022-10-30T22:53:48.573Z,16.80
2022-10-30T22:56:19.912Z,16.70
2022-10-30T22:58:52.292Z,16.80
2022-10-30T23:01:22.382Z,16.80
2022-10-30T23:04:12.746Z,16.70
2022-10-30T23:06:49.367Z,16.70
2022-10-30T23:09:27.676Z,16.70
2022-10-30T23:11:58.101Z,16.70
2022-10-30T23:14:30.575Z,16.70
2022-10-30T23:17:23.025Z,16.60
2022-10-30T23:20:11.297Z,16.60
2022-10-30T23:22:47.354Z,16.50
2022-10-30T23:28:04.214Z,16.40
2022-10-30T23:30:39.819Z,16.40
2022-10-30T23:33:09.952Z,16.40
2022-10-30T23:35:39.702Z,16.40
2022-10-30T23:38:07.068Z,16.40
2022-10-30T23:40:35.585Z,16.40
2022-10-30T23:43:08.793Z,16.30
2022-10-30T23:45:53.674Z,16.30
2022-10-30T23:48:23.788Z,16.30
2022-10-30T23:50:51.034Z,16.30
2022-10-30T23:53:24.229Z,16.30
2022-10-30T23:55:55.468Z,16.30
2022-10-30T23:58:23.116Z,16.20
